Time;durP1;ratioP1;P1;durP2;ratioP2;P2;SDS_P1;SDS_P2;PMS_P1;PMS_P2;Temp;Humidity;BMP_temperature;BMP_pressure;BME280_temperature;BME280_humidity;BME280_pressure;Samples;Min_cycle;Max_cycle;Signal;HPM_P1;HPM_P2
2021/08/07 00:00:05;;;;;;;1.55;0.82;;;;;;;16.73;74.50;99175.03;10495941;28;20501;-71
2021/08/07 00:05:13;;;;;;;1.10;0.80;;;;;;;16.86;73.90;99177.66;10495150;28;20114;-71
2021/08/07 00:10:15;;;;;;;2.20;1.00;;;;;;;16.88;73.05;99181.06;10495763;28;20146;-70
2021/08/07 00:15:17;;;;;;;1.40;0.80;;;;;;;16.74;74.30;99190.00;10478185;28;20049;-71
2021/08/07 00:20:19;;;;;;;1.27;1.10;;;;;;;16.73;74.08;99184.78;10477533;28;20047;-70
2021/08/07 00:25:21;;;;;;;1.33;1.02;;;;;;;16.59;74.64;99191.03;10477596;28;20133;-71
2021/08/07 00:30:22;;;;;;;1.10;0.93;;;;;;;16.56;74.68;99193.94;10495489;28;20066;-70
2021/08/07 00:35:24;;;;;;;1.60;0.90;;;;;;;16.49;75.06;99190.00;10460585;28;20060;-70
2021/08/07 00:40:29;;;;;;;1.50;0.90;;;;;;;16.38;76.25;99193.41;10495489;28;20039;-71
2021/08/07 00:45:34;;;;;;;1.40;1.10;;;;;;;16.13;77.42;99195.06;10478086;28;20092;-71
2021/08/07 00:50:37;;;;;;;1.58;0.90;;;;;;;16.02;78.15;99194.09;10477262;28;20041;-71
2021/08/07 00:55:41;;;;;;;2.85;0.90;;;;;;;16.20;76.95;99194.63;10477077;28;20151;-73
2021/08/07 01:00:44;;;;;;;2.38;1.00;;;;;;;16.04;77.28;99198.34;10476465;28;20123;-71
2021/08/07 01:05:50;;;;;;;1.58;0.90;;;;;;;15.95;77.64;99196.31;10475983;28;20063;-72
2021/08/07 01:11:16;;;;;;;1.67;1.10;;;;;;;16.00;76.92;99201.31;10476311;28;20040;-73
2021/08/07 01:16:27;;;;;;;1.63;1.10;;;;;;;15.76;78.68;99195.81;10475950;28;20791;-73
2021/08/07 01:21:42;;;;;;;0.98;0.70;;;;;;;15.53;79.40;99198.16;10493615;28;20032;-72
2021/08/07 01:26:57;;;;;;;3.15;0.90;;;;;;;15.50;79.79;99195.72;10493369;28;20135;-72
2021/08/07 01:32:01;;;;;;;1.52;0.88;;;;;;;15.69;78.44;99191.91;10492689;28;20076;-72
2021/08/07 01:37:15;;;;;;;1.25;1.05;;;;;;;15.56;79.41;99203.25;10474573;28;20044;-72
2021/08/07 01:42:39;;;;;;;1.75;1.38;;;;;;;15.42;80.16;99195.38;10477637;28;20443;-72
2021/08/07 01:48:03;;;;;;;2.38;1.20;;;;;;;15.36;80.14;99203.69;10474954;28;20114;-73
2021/08/07 01:53:19;;;;;;;1.95;0.82;;;;;;;15.39;79.57;99199.06;10459727;28;20102;-72
2021/08/07 01:58:28;;;;;;;1.08;0.95;;;;;;;15.35;80.17;99209.94;10474094;28;20116;-73
2021/08/07 02:03:33;;;;;;;1.38;1.20;;;;;;;15.36;79.95;99201.94;10491799;28;20048;-72
2021/08/07 02:08:38;;;;;;;0.90;0.90;;;;;;;15.37;79.87;99194.81;10473681;28;20125;-72
2021/08/07 02:13:42;;;;;;;1.60;1.10;;;;;;;15.46;78.38;99182.78;10473935;28;20124;-73
2021/08/07 02:18:52;;;;;;;2.13;1.10;;;;;;;15.42;78.62;99174.19;10473805;28;20056;-74
2021/08/07 02:23:57;;;;;;;1.45;0.90;;;;;;;15.35;78.90;99172.88;10473380;28;20079;-72
2021/08/07 02:29:00;;;;;;;2.08;0.88;;;;;;;15.30;78.97;99175.81;10471485;28;20075;-72
2021/08/07 02:34:04;;;;;;;1.10;1.00;;;;;;;15.17;80.23;99176.72;10455831;28;20044;-72
2021/08/07 02:39:08;;;;;;;2.05;1.00;;;;;;;15.10;80.54;99176.28;10472196;28;20466;-73
2021/08/07 02:44:11;;;;;;;0.93;0.90;;;;;;;15.02;80.80;99178.56;10471991;28;20482;-72
2021/08/07 02:49:15;;;;;;;1.35;1.02;;;;;;;15.01;80.91;99177.72;10490472;28;20140;-73
2021/08/07 02:54:17;;;;;;;1.70;0.98;;;;;;;14.94;80.93;99178.19;10455168;28;20040;-72
2021/08/07 02:59:20;;;;;;;2.45;1.25;;;;;;;14.85;80.75;99176.97;10472553;28;20500;-72
2021/08/07 03:04:23;;;;;;;1.38;0.93;;;;;;;14.99;79.87;99182.25;10500097;22;20065;-71
2021/08/07 03:09:29;;;;;;;6.43;1.13;;;;;;;15.06;79.29;99185.34;10475305;28;20464;-72
2021/08/07 03:14:30;;;;;;;1.33;1.10;;;;;;;15.10;79.30;99202.75;10492540;28;20123;-72
2021/08/07 03:19:32;;;;;;;2.65;1.00;;;;;;;15.01;79.55;99198.03;10473437;28;20051;-72
2021/08/07 03:24:34;;;;;;;2.40;0.95;;;;;;;15.08;79.52;99194.88;10474101;28;20143;-72
2021/08/07 03:29:39;;;;;;;1.42;0.90;;;;;;;15.11;78.91;99193.84;10493753;28;20059;-71
2021/08/07 03:34:46;;;;;;;2.03;0.82;;;;;;;15.23;78.41;99193.06;10473718;28;20067;-71
2021/08/07 03:39:50;;;;;;;0.95;0.82;;;;;;;15.16;79.05;99185.63;10474403;28;20045;-71
2021/08/07 03:44:51;;;;;;;2.35;0.90;;;;;;;15.23;78.17;99186.91;10480594;28;20118;-70
2021/08/07 03:49:54;;;;;;;1.75;0.95;;;;;;;15.10;78.89;99189.50;10498682;28;20130;-71
2021/08/07 03:54:57;;;;;;;1.05;0.90;;;;;;;15.01;79.04;99187.44;10465335;28;20040;-71
2021/08/07 04:00:00;;;;;;;0.80;0.77;;;;;;;15.06;78.85;99186.19;10480628;28;20082;-71
2021/08/07 04:05:04;;;;;;;1.10;0.88;;;;;;;15.10;78.73;99192.16;10498320;28;20482;-71
2021/08/07 04:10:07;;;;;;;1.90;0.90;;;;;;;15.09;79.04;99193.09;10501184;28;20395;-71
2021/08/07 04:15:10;;;;;;;1.52;0.90;;;;;;;15.10;79.23;99187.72;10479633;28;20044;-71
2021/08/07 04:20:12;;;;;;;2.58;0.80;;;;;;;15.18;78.38;99189.00;10463688;28;20048;-71
2021/08/07 04:25:14;;;;;;;2.58;0.90;;;;;;;15.36;77.77;99193.97;10497688;28;20067;-71
2021/08/07 04:30:17;;;;;;;1.08;0.80;;;;;;;15.40;77.70;99199.91;10496324;28;20048;-71
2021/08/07 04:35:22;;;;;;;0.90;0.80;;;;;;;15.46;77.74;99196.88;10477982;28;20051;-71
2021/08/07 04:40:28;;;;;;;2.28;0.80;;;;;;;15.57;77.58;99194.34;10479307;28;20053;-70
2021/08/07 04:45:36;;;;;;;3.42;0.90;;;;;;;15.56;77.96;99195.31;10478169;28;20366;-72
2021/08/07 04:50:39;;;;;;;1.58;0.80;;;;;;;15.73;77.32;99191.59;10477657;28;20067;-70
2021/08/07 04:55:41;;;;;;;1.05;0.60;;;;;;;15.88;76.44;99200.31;10476427;28;20560;-71
2021/08/07 05:00:43;;;;;;;1.08;0.90;;;;;;;16.05;76.30;99197.38;10477356;28;20076;-71
2021/08/07 05:05:47;;;;;;;1.20;0.93;;;;;;;16.04;77.08;99198.34;10477457;28;20099;-71
2021/08/07 05:10:51;;;;;;;0.85;0.60;;;;;;;16.17;76.12;99195.72;10476405;28;20044;-71
2021/08/07 05:15:53;;;;;;;1.05;0.80;;;;;;;16.32;77.23;99191.16;10475553;28;20147;-70
2021/08/07 05:20:56;;;;;;;2.35;0.90;;;;;;;16.30;77.66;99190.41;10476651;28;20517;-70
2021/08/07 05:25:58;;;;;;;1.13;0.52;;;;;;;16.58;74.85;99200.81;10496073;28;20114;-71
2021/08/07 05:31:00;;;;;;;0.80;0.60;;;;;;;16.87;73.19;99205.91;10476810;28;20553;-71
2021/08/07 05:36:03;;;;;;;1.20;0.70;;;;;;;17.21;72.16;99199.03;10475991;28;20129;-72
2021/08/07 05:41:05;;;;;;;1.92;0.50;;;;;;;17.63;70.03;99205.66;10475797;28;20466;-71
2021/08/07 05:46:09;;;;;;;1.10;0.50;;;;;;;17.79;69.84;99199.22;10476857;28;20048;-72
2021/08/07 05:51:12;;;;;;;1.90;0.65;;;;;;;17.93;67.91;99192.88;10475527;28;20051;-71
2021/08/07 05:56:14;;;;;;;1.92;0.60;;;;;;;18.11;69.18;99192.34;10476205;28;20052;-72
2021/08/07 06:01:15;;;;;;;1.10;0.50;;;;;;;18.43;67.48;99185.53;10475776;28;20071;-72
2021/08/07 06:06:18;;;;;;;1.25;0.60;;;;;;;18.48;66.77;99186.84;10475565;28;20071;-72
2021/08/07 06:11:20;;;;;;;2.38;0.60;;;;;;;18.53;67.51;99182.00;10476523;28;20048;-72
2021/08/07 06:16:22;;;;;;;1.05;0.50;;;;;;;18.84;64.80;99185.78;10475625;28;20048;-72
2021/08/07 06:21:25;;;;;;;1.50;0.47;;;;;;;19.19;64.16;99203.44;10474442;28;20520;-72
2021/08/07 06:26:29;;;;;;;0.88;0.40;;;;;;;19.47;62.38;99209.19;10475337;28;20114;-72
2021/08/07 06:31:32;;;;;;;1.02;0.60;;;;;;;19.70;61.38;99207.31;10477108;28;20049;-73
2021/08/07 06:36:35;;;;;;;1.05;0.50;;;;;;;19.80;60.32;99195.78;10475135;28;20459;-72
2021/08/07 06:41:38;;;;;;;1.02;0.40;;;;;;;20.02;59.09;99200.19;10475378;28;20127;-73
2021/08/07 06:46:54;;;;;;;4.53;0.68;;;;;;;20.15;59.02;99202.66;10461688;28;20048;-73
2021/08/07 06:51:57;;;;;;;0.55;0.40;;;;;;;20.36;60.07;99215.97;10491818;28;20536;-72
2021/08/07 06:56:58;;;;;;;1.15;0.50;;;;;;;20.48;57.57;99211.47;10473969;28;20044;-72
2021/08/07 07:02:00;;;;;;;0.73;0.40;;;;;;;20.59;56.64;99212.25;10473549;28;20051;-72
2021/08/07 07:07:04;;;;;;;0.73;0.50;;;;;;;20.79;57.11;99215.84;10490858;28;20044;-73
2021/08/07 07:12:06;;;;;;;1.00;0.40;;;;;;;21.10;56.97;99222.00;10474383;28;20041;-72
2021/08/07 07:17:08;;;;;;;0.82;0.32;;;;;;;21.26;54.13;99228.69;10477176;28;20067;-73
2021/08/07 07:22:09;;;;;;;0.55;0.40;;;;;;;21.12;54.58;99229.91;10499439;28;20078;-73
2021/08/07 07:27:13;;;;;;;0.82;0.40;;;;;;;21.52;54.79;99229.91;10499774;28;20071;-72
2021/08/07 07:32:14;;;;;;;1.17;0.40;;;;;;;21.70;54.21;99234.59;10484825;28;20047;-73
2021/08/07 07:37:17;;;;;;;0.70;0.40;;;;;;;21.71;53.65;99233.59;10482403;28;20052;-73
2021/08/07 07:42:18;;;;;;;0.50;0.40;;;;;;;21.42;53.35;99231.69;10481375;28;20036;-73
2021/08/07 07:47:20;;;;;;;1.00;0.38;;;;;;;21.48;53.04;99222.31;10482294;28;20065;-73
2021/08/07 07:52:22;;;;;;;1.02;0.40;;;;;;;21.86;51.95;99218.81;10503159;28;20077;-74
2021/08/07 07:57:24;;;;;;;0.85;0.40;;;;;;;21.83;52.99;99217.28;10499838;28;20048;-73
2021/08/07 08:02:25;;;;;;;1.80;0.30;;;;;;;21.87;52.13;99209.81;10481730;28;20159;-75
2021/08/07 08:07:28;;;;;;;1.00;0.30;;;;;;;21.79;51.74;99220.38;10480262;28;20054;-73
2021/08/07 08:12:30;;;;;;;1.38;0.40;;;;;;;21.97;53.31;99207.13;10482829;28;20108;-74
2021/08/07 08:17:32;;;;;;;0.75;0.30;;;;;;;22.30;50.59;99198.66;10500288;28;20100;-74
2021/08/07 08:22:34;;;;;;;1.70;0.40;;;;;;;22.48;54.12;99189.88;10492468;28;20524;-73
2021/08/07 08:27:36;;;;;;;0.50;0.20;;;;;;;22.78;51.14;99192.31;10480693;28;20044;-73
2021/08/07 08:32:38;;;;;;;0.65;0.30;;;;;;;22.76;48.45;99207.72;10500929;28;20071;-74
2021/08/07 08:37:40;;;;;;;1.48;0.40;;;;;;;22.99;49.97;99200.19;10470963;28;20048;-77
2021/08/07 08:42:43;;;;;;;0.77;0.30;;;;;;;23.46;48.19;99197.34;10500301;28;20029;-75
2021/08/07 08:47:47;;;;;;;0.45;0.28;;;;;;;23.25;46.89;99202.16;10441817;28;20052;-74
2021/08/07 08:52:50;;;;;;;0.40;0.40;;;;;;;23.41;48.06;99199.66;10458804;28;20069;-74
2021/08/07 08:57:53;;;;;;;0.40;0.30;;;;;;;23.44;46.17;99207.41;10438251;28;20057;-73
2021/08/07 09:02:55;;;;;;;1.27;0.30;;;;;;;23.55;48.08;99209.88;10438616;28;20067;-74
2021/08/07 09:07:57;;;;;;;0.35;0.30;;;;;;;23.87;44.99;99204.03;10495513;23;20139;-73
2021/08/07 09:13:00;;;;;;;0.30;0.28;;;;;;;24.03;45.41;99195.25;10451964;28;20123;-73
2021/08/07 09:18:17;;;;;;;0.20;0.20;;;;;;;24.55;43.56;99195.34;10461377;28;20040;-73
2021/08/07 09:23:34;;;;;;;0.30;0.20;;;;;;;24.97;43.18;99191.88;10446448;28;20188;-71
2021/08/07 09:29:02;;;;;;;0.98;0.43;;;;;;;25.63;42.65;99191.09;10449121;28;20404;-71
2021/08/07 09:34:19;;;;;;;0.40;0.20;;;;;;;26.02;39.45;99178.88;10466250;28;20139;-71
2021/08/07 09:39:40;;;;;;;0.63;0.25;;;;;;;26.14;41.08;99169.44;10445165;28;20075;-71
2021/08/07 09:45:11;;;;;;;1.40;0.30;;;;;;;26.69;39.69;99174.09;10447968;28;20041;-72
2021/08/07 09:50:25;;;;;;;1.25;0.20;;;;;;;26.87;37.80;99157.69;10447849;28;20033;-71
2021/08/07 09:55:32;;;;;;;0.63;0.20;;;;;;;26.71;37.88;99157.75;10438136;28;20052;-71
2021/08/07 10:00:43;;;;;;;0.50;0.35;;;;;;;26.40;40.34;99155.78;10436119;28;20669;-71
2021/08/07 10:05:53;;;;;;;1.25;0.40;;;;;;;26.72;37.11;99145.94;10439900;28;20505;-73
2021/08/07 10:11:10;;;;;;;0.90;0.38;;;;;;;26.06;38.28;99148.75;10422170;28;20052;-73
2021/08/07 10:16:14;;;;;;;0.65;0.32;;;;;;;26.08;39.74;99152.13;10440350;28;20067;-72
2021/08/07 10:21:17;;;;;;;1.00;0.30;;;;;;;26.27;39.70;99156.31;10438657;28;20033;-73
2021/08/07 10:26:21;;;;;;;1.65;0.50;;;;;;;26.54;40.79;99146.19;10434894;28;20044;-73
2021/08/07 10:31:28;;;;;;;0.95;0.35;;;;;;;26.74;39.95;99149.31;10420937;28;20044;-72
2021/08/07 10:36:34;;;;;;;0.70;0.50;;;;;;;26.86;40.25;99134.44;10438246;28;20048;-72
2021/08/07 10:41:37;;;;;;;0.70;0.30;;;;;;;27.31;37.10;99122.09;10436830;28;20048;-72
2021/08/07 10:46:39;;;;;;;0.40;0.25;;;;;;;27.62;39.98;99117.47;10454982;28;20144;-72
2021/08/07 10:51:43;;;;;;;0.85;0.30;;;;;;;28.23;37.78;99114.78;10427634;28;20041;-71
2021/08/07 10:56:44;;;;;;;1.65;0.38;;;;;;;27.84;38.09;99118.50;10432957;28;20049;-71
2021/08/07 11:01:48;;;;;;;0.30;0.30;;;;;;;27.63;38.29;99115.66;10440230;28;20159;-72
2021/08/07 11:06:53;;;;;;;0.55;0.30;;;;;;;27.61;37.29;99113.09;10455579;28;20519;-72
2021/08/07 11:12:10;;;;;;;1.13;0.30;;;;;;;26.52;39.06;99105.06;10448906;28;20037;-72
2021/08/07 11:17:11;;;;;;;0.55;0.28;;;;;;;26.31;39.36;99113.69;10446584;28;20068;-72
2021/08/07 11:22:14;;;;;;;1.02;0.30;;;;;;;26.25;41.92;99112.50;10464542;28;20052;-72
2021/08/07 11:27:16;;;;;;;0.57;0.30;;;;;;;26.04;41.99;99114.94;10448644;28;20055;-74
2021/08/07 11:32:17;;;;;;;0.93;0.40;;;;;;;26.00;41.44;99108.19;10470006;28;20049;-72
2021/08/07 11:37:21;;;;;;;0.85;0.30;;;;;;;25.56;41.75;99101.28;10466590;28;20485;-72
2021/08/07 11:42:50;;;;;;;0.47;0.38;;;;;;;25.64;43.03;99085.13;10467253;28;20061;-73
2021/08/07 11:47:53;;;;;;;0.73;0.40;;;;;;;26.89;39.88;99080.16;10469001;28;20562;-75
2021/08/07 11:52:55;;;;;;;1.20;0.55;;;;;;;27.19;39.67;99074.97;10470637;28;20055;-74
2021/08/07 11:58:09;;;;;;;0.82;0.47;;;;;;;27.76;36.09;99083.50;10469942;28;20083;-75
2021/08/07 12:03:12;;;;;;;0.57;0.40;;;;;;;27.62;37.30;99081.53;10469246;28;20344;-75
2021/08/07 12:08:15;;;;;;;0.82;0.45;;;;;;;27.96;39.04;99070.31;10452949;28;20052;-75
2021/08/07 12:13:42;;;;;;;1.15;0.50;;;;;;;27.99;40.01;99069.13;10472960;28;20088;-74
2021/08/07 12:18:51;;;;;;;1.38;0.50;;;;;;;27.88;41.86;99068.53;10455623;28;20117;-75
2021/08/07 12:23:55;;;;;;;1.20;0.50;;;;;;;28.22;39.15;99058.22;10471250;28;20045;-75
2021/08/07 12:28:57;;;;;;;0.55;0.30;;;;;;;28.03;38.37;99065.88;10452830;28;20052;-75
2021/08/07 12:33:59;;;;;;;0.60;0.30;;;;;;;27.59;38.83;99053.06;10472197;28;20041;-76
2021/08/07 12:39:01;;;;;;;0.93;0.50;;;;;;;27.81;39.79;99059.50;10475329;28;20041;-75
2021/08/07 12:44:22;;;;;;;0.55;0.50;;;;;;;27.80;39.91;99062.34;10473434;28;20550;-75
2021/08/07 12:49:32;;;;;;;0.82;0.50;;;;;;;27.38;40.58;99064.53;10458832;28;20048;-75
2021/08/07 12:54:35;;;;;;;1.40;0.60;;;;;;;27.06;40.02;99067.44;10473579;28;20068;-76
2021/08/07 12:59:51;;;;;;;1.00;0.50;;;;;;;26.61;40.94;99056.38;10472311;28;20048;-74
2021/08/07 13:04:58;;;;;;;0.93;0.45;;;;;;;26.33;42.54;99041.63;10455724;28;20439;-74
2021/08/07 13:10:22;;;;;;;1.30;0.60;;;;;;;26.05;43.04;99033.97;10457240;28;20109;-75
2021/08/07 13:15:26;;;;;;;1.30;0.60;;;;;;;26.04;43.89;99034.16;10456324;28;20103;-73
2021/08/07 13:20:42;;;;;;;0.93;0.50;;;;;;;26.33;44.25;99017.38;10470614;28;20056;-72
2021/08/07 13:26:02;;;;;;;2.33;1.05;;;;;;;26.66;45.74;99027.03;10454475;28;20059;-74
2021/08/07 13:31:05;;;;;;;0.75;0.63;;;;;;;26.54;41.43;99017.66;10453044;28;20489;-72
2021/08/07 13:36:07;;;;;;;2.15;0.70;;;;;;;26.62;43.67;99004.13;10468663;28;20041;-72
2021/08/07 13:41:15;;;;;;;3.08;0.80;;;;;;;27.16;43.70;99006.84;10449732;28;20439;-71
2021/08/07 13:46:17;;;;;;;2.65;0.57;;;;;;;27.38;41.05;99001.63;10453886;28;20045;-73
2021/08/07 13:51:20;;;;;;;1.23;0.60;;;;;;;26.95;41.35;99000.41;10471009;28;20055;-71
2021/08/07 13:56:27;;;;;;;1.00;0.70;;;;;;;27.19;41.27;98999.44;10466487;28;20052;-71
2021/08/07 14:01:31;;;;;;;1.23;0.73;;;;;;;27.25;40.77;98987.91;10446793;28;20064;-72
2021/08/07 14:06:33;;;;;;;0.90;0.68;;;;;;;26.99;43.16;98982.84;10463279;28;20056;-72
2021/08/07 14:11:35;;;;;;;1.63;0.65;;;;;;;26.91;42.82;98973.78;10462270;28;20040;-74
2021/08/07 14:16:38;;;;;;;1.33;0.73;;;;;;;27.02;42.05;98969.00;10453441;28;20419;-75
2021/08/07 14:21:41;;;;;;;1.42;0.70;;;;;;;26.86;42.42;98959.16;10449549;28;20045;-72
2021/08/07 14:26:45;;;;;;;1.05;0.60;;;;;;;26.66;42.17;98956.94;10463688;28;20041;-72
2021/08/07 14:31:48;;;;;;;1.63;0.60;;;;;;;26.52;43.30;98941.53;10463881;28;20044;-73
2021/08/07 14:36:51;;;;;;;1.13;0.70;;;;;;;26.53;42.33;98948.59;10464544;28;20395;-76
2021/08/07 14:41:53;;;;;;;1.90;0.68;;;;;;;26.33;43.14;98941.94;10459779;28;20045;-73
2021/08/07 14:46:55;;;;;;;2.92;0.60;;;;;;;26.31;43.42;98927.81;10462149;28;20064;-73
2021/08/07 14:51:58;;;;;;;1.83;0.70;;;;;;;26.08;44.07;98923.22;10447056;28;20418;-74
2021/08/07 14:57:01;;;;;;;1.20;0.60;;;;;;;26.00;45.45;98927.78;10445852;28;20125;-74
2021/08/07 15:02:03;;;;;;;1.63;0.70;;;;;;;26.11;46.06;98930.91;10447933;28;20055;-74
2021/08/07 15:07:05;;;;;;;1.85;0.85;;;;;;;26.20;45.00;98931.72;10463986;22;20114;-70
2021/08/07 15:12:07;;;;;;;3.33;0.70;;;;;;;25.95;44.70;98925.63;10472878;28;20466;-71
2021/08/07 15:17:08;;;;;;;2.25;1.00;;;;;;;25.66;46.60;98924.31;10472699;28;20487;-71
2021/08/07 15:22:10;;;;;;;1.48;0.93;;;;;;;25.73;45.86;98923.66;10472869;28;20102;-70
2021/08/07 15:27:12;;;;;;;1.80;0.95;;;;;;;25.65;48.08;98924.50;10472018;28;20116;-70
2021/08/07 15:32:17;;;;;;;3.10;1.10;;;;;;;25.71;43.88;98912.19;10490848;28;20048;-70
2021/08/07 15:37:18;;;;;;;2.08;0.95;;;;;;;25.47;45.91;98924.72;10474441;28;20055;-71
2021/08/07 15:42:20;;;;;;;1.52;1.17;;;;;;;25.09;47.90;98918.19;10497737;28;20063;-71
2021/08/07 15:47:22;;;;;;;10.95;10.05;;;;;;;25.06;47.44;98910.44;10498323;28;20048;-70
2021/08/07 15:52:24;;;;;;;8.75;7.95;;;;;;;25.00;47.43;98901.19;10496431;28;20071;-72
2021/08/07 15:57:25;;;;;;;8.40;7.80;;;;;;;25.04;48.37;98896.31;10496802;28;20417;-71
2021/08/07 16:02:28;;;;;;;12.38;11.13;;;;;;;24.90;49.16;98898.66;10496000;28;20492;-71
2021/08/07 16:07:31;;;;;;;5.20;3.78;;;;;;;25.01;47.47;98905.53;10497820;28;20060;-70
2021/08/07 16:12:35;;;;;;;3.15;2.15;;;;;;;24.94;48.70;98904.56;10496150;28;20056;-70
2021/08/07 16:17:37;;;;;;;2.45;1.50;;;;;;;24.76;49.77;98904.72;10495581;28;20395;-70
2021/08/07 16:22:38;;;;;;;2.85;1.80;;;;;;;24.78;49.19;98907.22;10495889;28;20106;-70
2021/08/07 16:27:40;;;;;;;4.45;2.65;;;;;;;24.57;49.95;98903.19;10478405;28;20055;-71
2021/08/07 16:32:42;;;;;;;3.45;1.80;;;;;;;24.33;49.92;98903.09;10478382;28;20049;-71
2021/08/07 16:37:43;;;;;;;1.63;1.38;;;;;;;24.20;49.88;98900.03;10477979;28;20048;-71
2021/08/07 16:42:45;;;;;;;3.72;1.55;;;;;;;24.23;50.67;98892.50;10495610;28;20048;-71
2021/08/07 16:47:46;;;;;;;2.17;1.50;;;;;;;24.07;51.31;98887.06;10494283;28;20123;-71
2021/08/07 16:53:04;;;;;;;3.30;1.60;;;;;;;23.97;51.77;98910.53;10478705;28;20137;-71
2021/08/07 16:58:06;;;;;;;3.20;2.00;;;;;;;23.83;55.63;98918.19;10496185;28;20037;-71
2021/08/07 17:03:08;;;;;;;2.60;2.03;;;;;;;23.64;56.16;98935.34;10493945;28;20044;-71
2021/08/07 17:08:09;;;;;;;2.67;1.92;;;;;;;23.54;57.21;98953.34;10494268;28;20131;-71
2021/08/07 17:13:11;;;;;;;4.00;2.90;;;;;;;23.38;58.20;98966.66;10496733;28;20098;-72
2021/08/07 17:18:14;;;;;;;4.38;1.90;;;;;;;23.10;55.18;98995.41;10473870;28;20465;-72
2021/08/07 17:23:15;;;;;;;6.00;2.00;;;;;;;22.57;58.17;99005.03;10489768;28;20459;-72
2021/08/07 17:28:17;;;;;;;3.03;1.45;;;;;;;22.24;57.98;99017.22;10434336;28;20382;-72
2021/08/07 17:33:19;;;;;;;3.22;1.35;;;;;;;22.05;60.16;99034.16;10454876;28;20071;-70
2021/08/07 17:38:21;;;;;;;1.42;0.90;;;;;;;21.80;60.63;99049.00;10493426;28;20085;-73
2021/08/07 17:43:22;;;;;;;2.35;0.85;;;;;;;21.49;62.38;99064.41;10493260;28;20062;-73
2021/08/07 17:48:24;;;;;;;0.98;0.80;;;;;;;21.08;65.40;99076.19;10493773;28;20063;-72
2021/08/07 17:53:26;;;;;;;2.28;1.00;;;;;;;20.75;67.15;99088.03;10494270;28;20355;-72
2021/08/07 17:58:27;;;;;;;2.78;1.23;;;;;;;20.33;68.25;99091.66;10475768;28;20090;-72
2021/08/07 18:03:29;;;;;;;3.00;1.52;;;;;;;19.93;71.38;99099.59;10493369;28;20116;-73
2021/08/07 18:08:31;;;;;;;1.48;1.20;;;;;;;19.62;73.29;99102.19;10492089;28;20409;-72
2021/08/07 18:13:32;;;;;;;1.95;1.38;;;;;;;19.39;76.06;99104.09;10491974;28;20041;-72
2021/08/07 18:18:34;;;;;;;2.50;1.40;;;;;;;19.19;79.14;99106.69;10492760;28;20082;-71
2021/08/07 18:23:36;;;;;;;2.10;1.55;;;;;;;19.08;79.95;99111.09;10492068;28;20377;-72
2021/08/07 18:28:38;;;;;;;2.10;1.48;;;;;;;18.90;80.58;99084.13;10472777;28;20061;-72
2021/08/07 18:33:39;;;;;;;2.38;1.40;;;;;;;18.89;80.35;99073.59;10491134;28;20391;-71
2021/08/07 18:38:43;;;;;;;1.95;1.20;;;;;;;18.79;81.07;99073.50;10493134;28;20148;-71
2021/08/07 18:43:45;;;;;;;1.92;1.40;;;;;;;18.73;81.79;99065.19;10491283;28;20110;-72
2021/08/07 18:48:48;;;;;;;2.53;1.70;;;;;;;18.69;81.78;99024.66;10492097;28;20055;-72
2021/08/07 18:53:50;;;;;;;2.42;1.80;;;;;;;18.53;82.51;99022.34;10473315;28;20439;-72
2021/08/07 18:58:51;;;;;;;2.03;1.48;;;;;;;18.55;81.79;99028.41;10472597;28;20064;-72
2021/08/07 19:03:54;;;;;;;2.33;1.20;;;;;;;18.47;80.43;99016.66;10490703;28;20434;-70
2021/08/07 19:08:56;;;;;;;2.90;1.50;;;;;;;18.46;82.37;98967.94;10491726;28;20056;-71
2021/08/07 19:13:58;;;;;;;2.20;1.40;;;;;;;18.41;80.05;98976.25;10495558;28;20040;-71
2021/08/07 19:19:00;;;;;;;1.30;0.88;;;;;;;18.28;79.67;98977.38;10498325;28;20151;-71
2021/08/07 19:24:02;;;;;;;1.85;1.70;;;;;;;18.28;80.97;99003.97;10498381;28;20045;-71
2021/08/07 19:29:04;;;;;;;1.48;1.00;;;;;;;18.22;80.04;98989.38;10497889;28;20059;-71
2021/08/07 19:34:06;;;;;;;3.08;1.23;;;;;;;18.25;80.69;98967.00;10499189;28;20040;-72
2021/08/07 19:39:07;;;;;;;2.08;1.23;;;;;;;18.00;84.55;98963.63;10497011;28;20500;-71
2021/08/07 19:44:09;;;;;;;2.95;1.23;;;;;;;17.95;85.05;98971.13;10496965;28;20037;-72
2021/08/07 19:49:11;;;;;;;1.60;1.50;;;;;;;18.10;81.91;99006.28;10496985;28;20118;-71
2021/08/07 19:54:17;;;;;;;1.73;1.30;;;;;;;18.08;81.65;99029.50;10497191;28;20102;-71
2021/08/07 19:59:19;;;;;;;2.28;1.40;;;;;;;17.91;83.28;99044.13;10478729;28;20048;-71
2021/08/07 20:04:21;;;;;;;2.50;1.30;;;;;;;17.86;83.39;99091.47;10496024;28;20105;-71
2021/08/07 20:09:23;;;;;;;1.40;1.30;;;;;;;17.91;82.60;99062.72;10478106;28;20102;-71
2021/08/07 20:14:24;;;;;;;4.70;1.50;;;;;;;17.81;83.51;99083.88;10496210;28;20105;-71
2021/08/07 20:19:26;;;;;;;3.70;1.52;;;;;;;17.71;85.21;99103.25;10496577;28;20051;-72
2021/08/07 20:24:28;;;;;;;3.67;1.55;;;;;;;17.76;84.36;99095.81;10495807;28;20048;-71
2021/08/07 20:29:29;;;;;;;2.35;1.30;;;;;;;17.69;85.14;99127.28;10477225;28;20055;-71
2021/08/07 20:34:31;;;;;;;2.00;1.45;;;;;;;17.62;85.17;99121.59;10478384;28;20044;-71
2021/08/07 20:39:32;;;;;;;2.78;1.60;;;;;;;17.52;84.53;99127.69;10496198;28;20151;-71
2021/08/07 20:44:34;;;;;;;2.97;1.20;;;;;;;17.58;83.66;99130.75;10495127;28;20052;-71
2021/08/07 20:49:36;;;;;;;1.80;1.08;;;;;;;17.53;83.43;99121.41;10494809;28;20125;-72
2021/08/07 20:54:37;;;;;;;4.63;1.67;;;;;;;17.44;85.02;99154.81;10477021;28;20118;-71
2021/08/07 20:59:39;;;;;;;1.77;1.13;;;;;;;17.34;85.67;99133.41;10477874;28;20062;-71
2021/08/07 21:04:41;;;;;;;1.30;0.82;;;;;;;17.49;82.81;99149.22;10476950;28;20041;-71
2021/08/07 21:09:42;;;;;;;2.30;0.80;;;;;;;17.31;84.68;99173.50;10505603;23;20101;-68
2021/08/07 21:14:44;;;;;;;1.40;0.80;;;;;;;17.37;84.32;99169.53;10493084;28;20458;-68
2021/08/07 21:19:45;;;;;;;0.65;0.65;;;;;;;17.18;86.39;99142.63;10492874;28;20412;-68
2021/08/07 21:24:47;;;;;;;1.35;0.90;;;;;;;17.35;84.41;99150.19;10474340;28;20072;-68
2021/08/07 21:29:49;;;;;;;2.08;0.93;;;;;;;17.37;84.55;99164.22;10474200;28;20363;-68
2021/08/07 21:34:50;;;;;;;2.33;1.00;;;;;;;17.13;87.13;99135.00;10473476;28;20049;-69
2021/08/07 21:39:52;;;;;;;1.10;1.00;;;;;;;17.00;88.41;99132.41;10457386;28;20116;-70
2021/08/07 21:44:53;;;;;;;1.70;1.20;;;;;;;17.00;88.67;99143.03;10491497;28;20497;-69
2021/08/07 21:49:56;;;;;;;1.88;1.05;;;;;;;17.07;88.33;99133.63;10492091;28;20040;-68
2021/08/07 21:54:57;;;;;;;1.48;1.33;;;;;;;17.02;90.48;99133.13;10491498;28;20382;-70
2021/08/07 22:00:00;;;;;;;2.00;1.20;;;;;;;16.96;91.31;99117.66;10491676;28;20150;-68
2021/08/07 22:05:01;;;;;;;1.25;1.15;;;;;;;16.98;91.56;99094.50;10472874;28;20051;-68
2021/08/07 22:10:03;;;;;;;1.85;1.27;;;;;;;16.98;91.43;99088.34;10490736;28;20048;-69
2021/08/07 22:15:06;;;;;;;1.75;1.50;;;;;;;17.20;89.93;99087.59;10490274;28;20060;-68
2021/08/07 22:20:09;;;;;;;1.58;1.40;;;;;;;17.30;89.18;99068.19;10472258;28;20358;-68
2021/08/07 22:25:11;;;;;;;2.00;1.70;;;;;;;17.50;87.67;99095.94;10491420;28;20052;-69
2021/08/07 22:30:13;;;;;;;1.40;1.30;;;;;;;17.31;89.08;99101.78;10490682;28;20435;-68
2021/08/07 22:35:15;;;;;;;2.78;1.60;;;;;;;17.02;91.75;99084.50;10490361;28;20045;-67
2021/08/07 22:40:16;;;;;;;3.22;1.48;;;;;;;17.16;89.51;99108.22;10472507;28;20424;-68
2021/08/07 22:45:18;;;;;;;2.70;1.40;;;;;;;17.08;89.85;99092.00;10489412;28;20122;-68
2021/08/07 22:50:22;;;;;;;2.00;1.40;;;;;;;17.08;88.82;99108.78;10489122;28;20048;-68
2021/08/07 22:55:25;;;;;;;2.70;1.15;;;;;;;16.97;88.73;99139.75;10471446;28;20045;-67
2021/08/07 23:00:27;;;;;;;3.15;1.23;;;;;;;16.75;89.91;99140.44;10493343;28;20052;-67
2021/08/07 23:05:30;;;;;;;1.90;1.38;;;;;;;16.63;91.19;99136.81;10492697;28;20066;-68
2021/08/07 23:10:32;;;;;;;2.00;1.88;;;;;;;16.53;91.98;99130.47;10491173;28;20045;-68
2021/08/07 23:15:33;;;;;;;2.03;1.70;;;;;;;16.60;91.99;99124.63;10490738;28;20056;-68
2021/08/07 23:20:35;;;;;;;2.80;1.60;;;;;;;16.72;91.23;99125.56;10490873;28;20523;-68
2021/08/07 23:25:37;;;;;;;2.17;1.80;;;;;;;16.85;89.92;99142.31;10473682;28;20104;-68
2021/08/07 23:30:38;;;;;;;2.97;2.20;;;;;;;16.62;90.94;99140.41;10490627;28;20431;-68